sensor_id;sensor_type;location;lat;lon;timestamp;P1;durP1;ratioP1;P2;durP2;ratioP2
49942;SDS011;36011;53.362;58.948;2022-10-04T00:01:51;5.38;;;2.53;;
49942;SDS011;36011;53.362;58.948;2022-10-04T00:05:07;4.25;;;2.95;;
49942;SDS011;36011;53.362;58.948;2022-10-04T00:11:48;5.72;;;3.08;;
49942;SDS011;36011;53.362;58.948;2022-10-04T00:14:56;5.00;;;3.05;;
49942;SDS011;36011;53.362;58.948;2022-10-04T00:21:15;7.18;;;3.05;;
49942;SDS011;36011;53.362;58.948;2022-10-04T00:27:35;12.88;;;4.10;;
49942;SDS011;36011;53.362;58.948;2022-10-04T00:30:37;8.82;;;4.00;;
49942;SDS011;36011;53.362;58.948;2022-10-04T00:33:45;7.55;;;3.50;;
49942;SDS011;36011;53.362;58.948;2022-10-04T00:36:53;4.15;;;2.58;;
49942;SDS011;36011;53.362;58.948;2022-10-04T00:39:57;5.85;;;3.22;;
49942;SDS011;36011;53.362;58.948;2022-10-04T00:43:22;5.30;;;2.67;;
49942;SDS011;36011;53.362;58.948;2022-10-04T00:46:37;6.55;;;3.28;;
49942;SDS011;36011;53.362;58.948;2022-10-04T00:49:43;5.65;;;2.55;;
49942;SDS011;36011;53.362;58.948;2022-10-04T00:52:53;5.85;;;3.10;;
49942;SDS011;36011;53.362;58.948;2022-10-04T00:55:58;5.82;;;3.25;;
49942;SDS011;36011;53.362;58.948;2022-10-04T01:06:08;4.72;;;3.42;;
49942;SDS011;36011;53.362;58.948;2022-10-04T01:09:17;7.28;;;3.70;;
49942;SDS011;36011;53.362;58.948;2022-10-04T01:22:42;5.93;;;3.67;;
49942;SDS011;36011;53.362;58.948;2022-10-04T01:25:55;7.63;;;4.15;;
49942;SDS011;36011;53.362;58.948;2022-10-04T01:28:58;9.55;;;4.60;;
49942;SDS011;36011;53.362;58.948;2022-10-04T01:32:11;10.50;;;4.72;;
49942;SDS011;36011;53.362;58.948;2022-10-04T01:35:12;10.93;;;4.35;;
49942;SDS011;36011;53.362;58.948;2022-10-04T01:38:19;5.45;;;3.35;;
49942;SDS011;36011;53.362;58.948;2022-10-04T01:41:23;8.20;;;3.75;;
49942;SDS011;36011;53.362;58.948;2022-10-04T01:44:36;6.97;;;3.67;;
49942;SDS011;36011;53.362;58.948;2022-10-04T01:47:59;6.40;;;3.72;;
49942;SDS011;36011;53.362;58.948;2022-10-04T01:51:07;6.28;;;3.55;;
49942;SDS011;36011;53.362;58.948;2022-10-04T01:54:17;5.35;;;3.58;;
49942;SDS011;36011;53.362;58.948;2022-10-04T02:00:40;5.80;;;3.03;;
49942;SDS011;36011;53.362;58.948;2022-10-04T02:03:56;5.70;;;3.50;;
49942;SDS011;36011;53.362;58.948;2022-10-04T02:07:09;10.30;;;3.90;;
49942;SDS011;36011;53.362;58.948;2022-10-04T02:10:17;9.52;;;4.30;;
49942;SDS011;36011;53.362;58.948;2022-10-04T02:13:23;11.35;;;3.95;;
49942;SDS011;36011;53.362;58.948;2022-10-04T02:16:35;7.90;;;4.10;;
49942;SDS011;36011;53.362;58.948;2022-10-04T02:19:41;6.28;;;4.15;;
49942;SDS011;36011;53.362;58.948;2022-10-04T02:22:50;9.48;;;4.95;;
49942;SDS011;36011;53.362;58.948;2022-10-04T02:29:12;15.13;;;7.05;;
49942;SDS011;36011;53.362;58.948;2022-10-04T02:32:13;14.45;;;7.97;;
49942;SDS011;36011;53.362;58.948;2022-10-04T02:35:35;25.30;;;13.13;;
49942;SDS011;36011;53.362;58.948;2022-10-04T02:42:00;21.05;;;10.77;;
49942;SDS011;36011;53.362;58.948;2022-10-04T02:45:23;20.48;;;10.40;;
49942;SDS011;36011;53.362;58.948;2022-10-04T02:51:49;28.48;;;10.88;;
49942;SDS011;36011;53.362;58.948;2022-10-04T02:55:05;26.23;;;12.90;;
49942;SDS011;36011;53.362;58.948;2022-10-04T02:58:20;25.35;;;13.32;;
49942;SDS011;36011;53.362;58.948;2022-10-04T03:01:25;25.67;;;13.85;;
49942;SDS011;36011;53.362;58.948;2022-10-04T03:04:32;28.83;;;13.13;;
49942;SDS011;36011;53.362;58.948;2022-10-04T03:07:39;28.75;;;15.10;;
49942;SDS011;36011;53.362;58.948;2022-10-04T03:10:41;35.17;;;17.55;;
49942;SDS011;36011;53.362;58.948;2022-10-04T03:13:44;30.25;;;17.55;;
49942;SDS011;36011;53.362;58.948;2022-10-04T03:16:48;36.00;;;17.67;;
49942;SDS011;36011;53.362;58.948;2022-10-04T03:19:55;33.97;;;17.20;;
49942;SDS011;36011;53.362;58.948;2022-10-04T03:23:03;31.98;;;17.02;;
49942;SDS011;36011;53.362;58.948;2022-10-04T03:26:13;30.90;;;17.17;;
49942;SDS011;36011;53.362;58.948;2022-10-04T03:29:21;30.58;;;15.45;;
49942;SDS011;36011;53.362;58.948;2022-10-04T03:35:27;29.15;;;14.60;;
49942;SDS011;36011;53.362;58.948;2022-10-04T03:38:33;27.48;;;16.38;;
49942;SDS011;36011;53.362;58.948;2022-10-04T03:41:38;32.65;;;16.75;;
49942;SDS011;36011;53.362;58.948;2022-10-04T03:44:49;32.22;;;17.77;;
49942;SDS011;36011;53.362;58.948;2022-10-04T03:47:53;36.95;;;17.38;;
49942;SDS011;36011;53.362;58.948;2022-10-04T03:51:09;29.20;;;14.82;;
49942;SDS011;36011;53.362;58.948;2022-10-04T03:54:20;22.95;;;12.98;;
49942;SDS011;36011;53.362;58.948;2022-10-04T03:57:23;26.73;;;13.20;;
49942;SDS011;36011;53.362;58.948;2022-10-04T04:00:25;24.27;;;11.88;;
49942;SDS011;36011;53.362;58.948;2022-10-04T04:03:34;21.27;;;11.68;;
49942;SDS011;36011;53.362;58.948;2022-10-04T04:07:09;17.42;;;8.80;;
49942;SDS011;36011;53.362;58.948;2022-10-04T04:10:24;19.42;;;8.50;;
49942;SDS011;36011;53.362;58.948;2022-10-04T04:13:36;9.07;;;4.78;;
49942;SDS011;36011;53.362;58.948;2022-10-04T04:20:33;8.07;;;4.65;;
49942;SDS011;36011;53.362;58.948;2022-10-04T04:23:40;9.00;;;3.90;;
49942;SDS011;36011;53.362;58.948;2022-10-04T04:26:56;8.02;;;4.07;;
49942;SDS011;36011;53.362;58.948;2022-10-04T04:30:03;5.47;;;3.17;;
49942;SDS011;36011;53.362;58.948;2022-10-04T04:33:08;4.22;;;3.00;;
49942;SDS011;36011;53.362;58.948;2022-10-04T04:36:19;5.47;;;3.20;;
49942;SDS011;36011;53.362;58.948;2022-10-04T04:39:21;6.55;;;2.53;;
49942;SDS011;36011;53.362;58.948;2022-10-04T04:48:54;3.15;;;1.92;;
49942;SDS011;36011;53.362;58.948;2022-10-04T04:52:03;6.07;;;2.63;;
49942;SDS011;36011;53.362;58.948;2022-10-04T04:55:05;3.83;;;2.30;;
49942;SDS011;36011;53.362;58.948;2022-10-04T04:58:17;7.07;;;2.53;;
49942;SDS011;36011;53.362;58.948;2022-10-04T05:01:34;5.03;;;2.38;;
49942;SDS011;36011;53.362;58.948;2022-10-04T05:04:42;6.72;;;2.80;;
49942;SDS011;36011;53.362;58.948;2022-10-04T05:08:02;3.58;;;1.83;;
49942;SDS011;36011;53.362;58.948;2022-10-04T05:11:15;6.70;;;2.70;;
49942;SDS011;36011;53.362;58.948;2022-10-04T05:14:23;4.63;;;2.45;;
49942;SDS011;36011;53.362;58.948;2022-10-04T05:17:33;5.03;;;2.33;;
49942;SDS011;36011;53.362;58.948;2022-10-04T05:20:42;3.58;;;2.50;;
49942;SDS011;36011;53.362;58.948;2022-10-04T05:23:50;5.90;;;3.03;;
49942;SDS011;36011;53.362;58.948;2022-10-04T05:27:02;6.93;;;3.10;;
49942;SDS011;36011;53.362;58.948;2022-10-04T05:33:19;4.50;;;2.50;;
49942;SDS011;36011;53.362;58.948;2022-10-04T05:43:24;7.05;;;2.30;;
49942;SDS011;36011;53.362;58.948;2022-10-04T05:46:30;4.25;;;2.10;;
49942;SDS011;36011;53.362;58.948;2022-10-04T05:49:35;4.07;;;2.65;;
49942;SDS011;36011;53.362;58.948;2022-10-04T05:52:48;4.72;;;2.58;;
49942;SDS011;36011;53.362;58.948;2022-10-04T06:22:46;1.77;;;1.00;;
49942;SDS011;36011;53.362;58.948;2022-10-04T06:26:03;3.63;;;1.20;;
49942;SDS011;36011;53.362;58.948;2022-10-04T06:29:22;3.03;;;1.25;;
49942;SDS011;36011;53.362;58.948;2022-10-04T06:42:39;2.22;;;1.35;;
49942;SDS011;36011;53.362;58.948;2022-10-04T06:53:21;1.63;;;0.70;;
49942;SDS011;36011;53.362;58.948;2022-10-04T07:00:31;0.40;;;0.40;;
49942;SDS011;36011;53.362;58.948;2022-10-04T07:10:49;1.52;;;0.60;;
49942;SDS011;36011;53.362;58.948;2022-10-04T07:17:16;1.23;;;0.50;;
49942;SDS011;36011;53.362;58.948;2022-10-04T07:20:25;0.50;;;0.50;;
49942;SDS011;36011;53.362;58.948;2022-10-04T07:23:43;1.08;;;0.47;;
49942;SDS011;36011;53.362;58.948;2022-10-04T07:26:56;0.50;;;0.30;;
49942;SDS011;36011;53.362;58.948;2022-10-04T07:30:05;0.80;;;0.40;;
49942;SDS011;36011;53.362;58.948;2022-10-04T07:33:10;0.38;;;0.35;;
49942;SDS011;36011;53.362;58.948;2022-10-04T07:36:22;1.15;;;0.50;;
49942;SDS011;36011;53.362;58.948;2022-10-04T07:39:29;0.70;;;0.40;;
49942;SDS011;36011;53.362;58.948;2022-10-04T07:45:48;0.77;;;0.60;;
49942;SDS011;36011;53.362;58.948;2022-10-04T07:48:54;0.50;;;0.40;;
49942;SDS011;36011;53.362;58.948;2022-10-04T08:05:36;1.35;;;0.80;;
49942;SDS011;36011;53.362;58.948;2022-10-04T08:09:07;0.60;;;0.50;;
49942;SDS011;36011;53.362;58.948;2022-10-04T08:15:57;1.40;;;0.70;;
49942;SDS011;36011;53.362;58.948;2022-10-04T08:19:10;2.67;;;0.57;;
49942;SDS011;36011;53.362;58.948;2022-10-04T08:26:11;1.17;;;0.70;;
49942;SDS011;36011;53.362;58.948;2022-10-04T08:33:06;1.95;;;0.95;;
49942;SDS011;36011;53.362;58.948;2022-10-04T08:40:28;1.05;;;0.80;;
49942;SDS011;36011;53.362;58.948;2022-10-04T08:43:30;0.82;;;0.60;;
49942;SDS011;36011;53.362;58.948;2022-10-04T08:57:41;1.48;;;0.70;;
49942;SDS011;36011;53.362;58.948;2022-10-04T09:49:11;2.17;;;1.13;;
49942;SDS011;36011;53.362;58.948;2022-10-04T10:13:25;2.22;;;1.40;;
49942;SDS011;36011;53.362;58.948;2022-10-04T11:10:03;3.58;;;2.28;;
49942;SDS011;36011;53.362;58.948;2022-10-04T11:30:38;3.53;;;1.75;;
49942;SDS011;36011;53.362;58.948;2022-10-04T11:45:12;4.00;;;2.03;;
49942;SDS011;36011;53.362;58.948;2022-10-04T11:55:26;3.50;;;1.63;;
49942;SDS011;36011;53.362;58.948;2022-10-04T12:02:44;1.80;;;1.70;;
49942;SDS011;36011;53.362;58.948;2022-10-04T12:23:16;1.83;;;1.40;;
49942;SDS011;36011;53.362;58.948;2022-10-04T12:43:33;2.00;;;1.80;;
49942;SDS011;36011;53.362;58.948;2022-10-04T12:47:31;2.75;;;1.80;;
49942;SDS011;36011;53.362;58.948;2022-10-04T12:54:24;4.20;;;1.90;;
49942;SDS011;36011;53.362;58.948;2022-10-04T13:00:46;4.60;;;2.38;;
49942;SDS011;36011;53.362;58.948;2022-10-04T13:17:42;4.55;;;2.97;;
49942;SDS011;36011;53.362;58.948;2022-10-04T13:21:04;3.42;;;3.00;;
49942;SDS011;36011;53.362;58.948;2022-10-04T13:27:13;3.03;;;2.45;;
49942;SDS011;36011;53.362;58.948;2022-10-04T13:30:22;2.88;;;2.58;;
49942;SDS011;36011;53.362;58.948;2022-10-04T13:57:29;13.82;;;7.28;;
49942;SDS011;36011;53.362;58.948;2022-10-04T14:00:59;8.90;;;5.30;;
49942;SDS011;36011;53.362;58.948;2022-10-04T14:07:36;4.55;;;3.42;;
49942;SDS011;36011;53.362;58.948;2022-10-04T14:25:09;5.13;;;3.63;;
49942;SDS011;36011;53.362;58.948;2022-10-04T14:48:48;12.57;;;7.07;;
49942;SDS011;36011;53.362;58.948;2022-10-04T14:52:14;59.67;;;28.85;;
49942;SDS011;36011;53.362;58.948;2022-10-04T14:58:56;91.28;;;38.30;;
49942;SDS011;36011;53.362;58.948;2022-10-04T15:11:56;73.80;;;36.97;;
49942;SDS011;36011;53.362;58.948;2022-10-04T15:21:42;60.90;;;33.50;;
49942;SDS011;36011;53.362;58.948;2022-10-04T15:24:51;65.90;;;36.22;;
49942;SDS011;36011;53.362;58.948;2022-10-04T15:27:56;23.02;;;12.70;;
49942;SDS011;36011;53.362;58.948;2022-10-04T15:38:00;9.50;;;5.72;;
49942;SDS011;36011;53.362;58.948;2022-10-04T15:41:36;9.15;;;6.35;;
49942;SDS011;36011;53.362;58.948;2022-10-04T15:45:01;7.38;;;5.30;;
49942;SDS011;36011;53.362;58.948;2022-10-04T15:48:22;6.35;;;4.30;;
49942;SDS011;36011;53.362;58.948;2022-10-04T16:05:35;4.65;;;3.88;;
49942;SDS011;36011;53.362;58.948;2022-10-04T16:09:03;23.63;;;12.77;;
49942;SDS011;36011;53.362;58.948;2022-10-04T16:12:26;6.78;;;4.72;;
49942;SDS011;36011;53.362;58.948;2022-10-04T16:22:31;49.03;;;29.98;;
49942;SDS011;36011;53.362;58.948;2022-10-04T16:25:37;49.88;;;31.25;;
49942;SDS011;36011;53.362;58.948;2022-10-04T16:35:34;46.05;;;27.95;;
49942;SDS011;36011;53.362;58.948;2022-10-04T16:38:46;46.22;;;26.80;;
49942;SDS011;36011;53.362;58.948;2022-10-04T16:42:12;44.65;;;25.40;;
49942;SDS011;36011;53.362;58.948;2022-10-04T16:48:59;22.25;;;12.35;;
49942;SDS011;36011;53.362;58.948;2022-10-04T16:55:53;19.10;;;10.45;;
49942;SDS011;36011;53.362;58.948;2022-10-04T16:59:12;26.55;;;15.30;;
49942;SDS011;36011;53.362;58.948;2022-10-04T17:02:26;21.88;;;12.75;;
49942;SDS011;36011;53.362;58.948;2022-10-04T17:09:36;26.13;;;13.88;;
49942;SDS011;36011;53.362;58.948;2022-10-04T17:16:38;19.33;;;12.77;;
49942;SDS011;36011;53.362;58.948;2022-10-04T17:19:56;23.88;;;12.82;;
49942;SDS011;36011;53.362;58.948;2022-10-04T17:30:25;13.35;;;7.68;;
49942;SDS011;36011;53.362;58.948;2022-10-04T17:40:54;10.30;;;5.40;;
49942;SDS011;36011;53.362;58.948;2022-10-04T17:44:09;10.20;;;6.00;;
49942;SDS011;36011;53.362;58.948;2022-10-04T17:51:31;17.88;;;8.93;;
49942;SDS011;36011;53.362;58.948;2022-10-04T17:54:58;14.13;;;7.82;;
49942;SDS011;36011;53.362;58.948;2022-10-04T17:58:18;48.92;;;20.75;;
49942;SDS011;36011;53.362;58.948;2022-10-04T18:01:30;11.68;;;6.28;;
49942;SDS011;36011;53.362;58.948;2022-10-04T18:04:38;39.75;;;17.67;;
49942;SDS011;36011;53.362;58.948;2022-10-04T18:08:40;73.97;;;33.55;;
49942;SDS011;36011;53.362;58.948;2022-10-04T18:14:44;20.95;;;10.65;;
49942;SDS011;36011;53.362;58.948;2022-10-04T18:18:03;7.82;;;5.43;;
49942;SDS011;36011;53.362;58.948;2022-10-04T18:21:23;10.88;;;6.15;;
49942;SDS011;36011;53.362;58.948;2022-10-04T18:24:29;45.22;;;21.33;;
49942;SDS011;36011;53.362;58.948;2022-10-04T18:27:30;39.50;;;19.08;;
49942;SDS011;36011;53.362;58.948;2022-10-04T18:33:46;36.38;;;19.73;;
49942;SDS011;36011;53.362;58.948;2022-10-04T18:40:33;43.22;;;21.77;;
49942;SDS011;36011;53.362;58.948;2022-10-04T18:43:48;33.33;;;17.17;;
49942;SDS011;36011;53.362;58.948;2022-10-04T18:47:15;27.95;;;16.10;;
49942;SDS011;36011;53.362;58.948;2022-10-04T18:50:35;28.55;;;14.65;;
49942;SDS011;36011;53.362;58.948;2022-10-04T18:53:52;30.05;;;13.98;;
49942;SDS011;36011;53.362;58.948;2022-10-04T19:00:38;26.52;;;12.63;;
49942;SDS011;36011;53.362;58.948;2022-10-04T19:04:07;27.67;;;14.32;;
49942;SDS011;36011;53.362;58.948;2022-10-04T19:07:17;21.63;;;11.90;;
49942;SDS011;36011;53.362;58.948;2022-10-04T19:10:41;23.50;;;11.15;;
49942;SDS011;36011;53.362;58.948;2022-10-04T19:14:07;26.45;;;11.63;;
49942;SDS011;36011;53.362;58.948;2022-10-04T19:27:02;21.65;;;10.10;;
49942;SDS011;36011;53.362;58.948;2022-10-04T19:30:15;20.38;;;10.15;;
49942;SDS011;36011;53.362;58.948;2022-10-04T19:40:05;17.77;;;8.95;;
49942;SDS011;36011;53.362;58.948;2022-10-04T19:43:09;20.08;;;9.63;;
49942;SDS011;36011;53.362;58.948;2022-10-04T19:53:19;20.13;;;9.30;;
49942;SDS011;36011;53.362;58.948;2022-10-04T19:56:31;18.50;;;9.98;;
49942;SDS011;36011;53.362;58.948;2022-10-04T19:59:37;23.08;;;10.57;;
49942;SDS011;36011;53.362;58.948;2022-10-04T20:02:42;19.92;;;10.35;;
49942;SDS011;36011;53.362;58.948;2022-10-04T20:05:50;23.00;;;11.00;;
49942;SDS011;36011;53.362;58.948;2022-10-04T20:08:54;19.45;;;9.25;;
49942;SDS011;36011;53.362;58.948;2022-10-04T20:11:58;22.65;;;11.95;;
49942;SDS011;36011;53.362;58.948;2022-10-04T20:15:20;20.13;;;10.48;;
49942;SDS011;36011;53.362;58.948;2022-10-04T20:21:31;20.02;;;9.68;;
49942;SDS011;36011;53.362;58.948;2022-10-04T20:30:48;18.73;;;8.75;;
49942;SDS011;36011;53.362;58.948;2022-10-04T20:34:00;15.40;;;8.27;;
49942;SDS011;36011;53.362;58.948;2022-10-04T20:40:56;14.13;;;7.43;;
49942;SDS011;36011;53.362;58.948;2022-10-04T20:44:00;13.52;;;7.15;;
49942;SDS011;36011;53.362;58.948;2022-10-04T20:47:03;21.47;;;11.17;;
49942;SDS011;36011;53.362;58.948;2022-10-04T20:53:42;16.75;;;7.65;;
49942;SDS011;36011;53.362;58.948;2022-10-04T20:56:47;19.50;;;7.28;;
49942;SDS011;36011;53.362;58.948;2022-10-04T20:59:52;16.00;;;7.63;;
49942;SDS011;36011;53.362;58.948;2022-10-04T21:03:13;12.40;;;5.93;;
49942;SDS011;36011;53.362;58.948;2022-10-04T21:06:21;14.13;;;7.72;;
49942;SDS011;36011;53.362;58.948;2022-10-04T21:09:23;11.15;;;6.35;;
49942;SDS011;36011;53.362;58.948;2022-10-04T21:15:36;10.93;;;5.82;;
49942;SDS011;36011;53.362;58.948;2022-10-04T21:18:55;8.02;;;5.43;;
49942;SDS011;36011;53.362;58.948;2022-10-04T21:22:38;10.18;;;5.60;;
49942;SDS011;36011;53.362;58.948;2022-10-04T21:25:43;10.00;;;5.40;;
49942;SDS011;36011;53.362;58.948;2022-10-04T21:29:05;8.48;;;4.75;;
49942;SDS011;36011;53.362;58.948;2022-10-04T21:35:18;8.23;;;5.28;;
49942;SDS011;36011;53.362;58.948;2022-10-04T21:38:22;8.45;;;5.22;;
49942;SDS011;36011;53.362;58.948;2022-10-04T21:41:26;11.18;;;5.45;;
49942;SDS011;36011;53.362;58.948;2022-10-04T21:44:30;8.73;;;5.07;;
49942;SDS011;36011;53.362;58.948;2022-10-04T21:47:31;12.00;;;5.88;;
49942;SDS011;36011;53.362;58.948;2022-10-04T21:50:39;10.50;;;5.68;;
49942;SDS011;36011;53.362;58.948;2022-10-04T21:53:43;9.88;;;5.60;;
49942;SDS011;36011;53.362;58.948;2022-10-04T21:56:47;11.80;;;5.18;;
49942;SDS011;36011;53.362;58.948;2022-10-04T21:59:53;10.90;;;5.57;;
49942;SDS011;36011;53.362;58.948;2022-10-04T22:02:58;10.25;;;5.72;;
49942;SDS011;36011;53.362;58.948;2022-10-04T22:06:02;12.45;;;5.72;;
49942;SDS011;36011;53.362;58.948;2022-10-04T22:09:09;12.68;;;5.97;;
49942;SDS011;36011;53.362;58.948;2022-10-04T22:12:14;11.30;;;5.95;;
49942;SDS011;36011;53.362;58.948;2022-10-04T22:15:18;11.27;;;5.47;;
49942;SDS011;36011;53.362;58.948;2022-10-04T22:18:25;9.65;;;5.45;;
49942;SDS011;36011;53.362;58.948;2022-10-04T22:21:29;9.10;;;5.30;;
49942;SDS011;36011;53.362;58.948;2022-10-04T22:24:36;8.43;;;4.70;;
49942;SDS011;36011;53.362;58.948;2022-10-04T22:27:40;10.93;;;5.05;;
49942;SDS011;36011;53.362;58.948;2022-10-04T22:30:45;10.52;;;4.85;;
49942;SDS011;36011;53.362;58.948;2022-10-04T22:33:51;6.28;;;4.47;;
49942;SDS011;36011;53.362;58.948;2022-10-04T22:36:55;9.10;;;4.43;;
49942;SDS011;36011;53.362;58.948;2022-10-04T22:39:59;5.70;;;3.78;;
49942;SDS011;36011;53.362;58.948;2022-10-04T22:43:01;6.35;;;3.97;;
49942;SDS011;36011;53.362;58.948;2022-10-04T22:46:10;6.00;;;4.00;;
49942;SDS011;36011;53.362;58.948;2022-10-04T22:49:38;6.05;;;3.58;;
49942;SDS011;36011;53.362;58.948;2022-10-04T22:52:42;6.68;;;3.55;;
49942;SDS011;36011;53.362;58.948;2022-10-04T22:55:47;7.18;;;3.80;;
49942;SDS011;36011;53.362;58.948;2022-10-04T22:59:00;7.22;;;3.50;;
49942;SDS011;36011;53.362;58.948;2022-10-04T23:02:05;3.95;;;2.22;;
49942;SDS011;36011;53.362;58.948;2022-10-04T23:05:16;4.55;;;2.50;;
49942;SDS011;36011;53.362;58.948;2022-10-04T23:08:18;4.40;;;2.10;;
49942;SDS011;36011;53.362;58.948;2022-10-04T23:11:22;3.72;;;2.25;;
49942;SDS011;36011;53.362;58.948;2022-10-04T23:14:23;9.65;;;5.07;;
49942;SDS011;36011;53.362;58.948;2022-10-04T23:17:26;6.43;;;3.63;;
49942;SDS011;36011;53.362;58.948;2022-10-04T23:20:32;5.68;;;3.65;;
49942;SDS011;36011;53.362;58.948;2022-10-04T23:23:33;6.95;;;3.90;;
49942;SDS011;36011;53.362;58.948;2022-10-04T23:26:36;5.55;;;2.35;;
49942;SDS011;36011;53.362;58.948;2022-10-04T23:29:41;5.00;;;2.42;;
49942;SDS011;36011;53.362;58.948;2022-10-04T23:32:46;11.65;;;5.22;;
49942;SDS011;36011;53.362;58.948;2022-10-04T23:35:54;7.32;;;2.80;;
49942;SDS011;36011;53.362;58.948;2022-10-04T23:38:59;3.40;;;1.77;;
49942;SDS011;36011;53.362;58.948;2022-10-04T23:42:03;8.93;;;4.50;;
49942;SDS011;36011;53.362;58.948;2022-10-04T23:45:33;8.82;;;4.20;;
49942;SDS011;36011;53.362;58.948;2022-10-04T23:48:41;9.80;;;4.43;;
49942;SDS011;36011;53.362;58.948;2022-10-04T23:51:46;9.25;;;3.92;;
49942;SDS011;36011;53.362;58.948;2022-10-04T23:54:53;5.82;;;4.05;;
49942;SDS011;36011;53.362;58.948;2022-10-04T23:57:55;9.93;;;4.20;;
